Time;durP1;ratioP1;P1;durP2;ratioP2;P2;SDS_P1;SDS_P2;PMS_P1;PMS_P2;Temp;Humidity;BMP_temperature;BMP_pressure;BME280_temperature;BME280_humidity;BME280_pressure;Samples;Min_cycle;Max_cycle;Signal;HPM_P1;HPM_P2
2022/03/25 00:01:39;;;;;;;11.57;6.70;;;1.90;86.10;1.60;101772.00;;;;4978087;28;107755;-62
2022/03/25 00:04:04;;;;;;;11.50;7.47;;;1.90;86.70;1.60;101759.00;;;;4976580;28;123370;-62
2022/03/25 00:06:31;;;;;;;7.93;7.03;;;1.90;87.40;1.50;101767.00;;;;4977556;28;108604;-62
2022/03/25 00:08:56;;;;;;;11.73;7.43;;;1.80;88.10;1.50;101772.00;;;;4979290;28;92911;-62
2022/03/25 00:11:22;;;;;;;11.13;7.67;;;1.70;89.00;1.40;101761.00;;;;4976344;28;106900;-62
2022/03/25 00:13:48;;;;;;;9.03;6.37;;;1.70;89.60;1.30;101764.00;;;;4991582;28;122580;-62
2022/03/25 00:16:13;;;;;;;8.80;6.87;;;2.00;90.20;1.30;101764.00;;;;4996653;27;110784;-62
2022/03/25 00:18:42;;;;;;;11.43;8.00;;;1.60;90.30;1.20;101763.00;;;;4998364;27;109087;-62
2022/03/25 00:21:07;;;;;;;18.87;7.77;;;1.60;90.70;1.20;101755.00;;;;4996748;27;113366;-63
2022/03/25 00:23:33;;;;;;;11.17;8.03;;;1.50;90.90;1.20;101753.00;;;;4976683;28;121815;-62
2022/03/25 00:25:59;;;;;;;8.97;6.47;;;1.50;91.40;1.10;101759.00;;;;4996208;28;92777;-61
2022/03/25 00:28:24;;;;;;;17.40;6.27;;;1.50;91.50;1.10;101753.00;;;;4976057;28;108900;-63
2022/03/25 00:30:50;;;;;;;12.13;7.00;;;1.40;91.70;1.10;101761.00;;;;4987465;27;122147;-62
2022/03/25 00:33:16;;;;;;;8.63;7.53;;;1.40;91.90;1.10;101759.00;;;;4997447;27;94072;-63
2022/03/25 00:35:42;;;;;;;14.57;7.57;;;1.40;92.30;1.10;101768.00;;;;4997537;27;105319;-63
2022/03/25 00:38:09;;;;;;;12.13;7.43;;;1.40;92.60;1.00;101762.00;;;;4998674;28;93151;-63
2022/03/25 00:40:34;;;;;;;10.73;6.77;;;1.30;92.90;1.00;101763.00;;;;4993098;27;122375;-63
2022/03/25 00:43:00;;;;;;;11.80;7.77;;;1.30;93.20;0.90;101758.00;;;;4977226;28;122469;-63
2022/03/25 00:45:28;;;;;;;11.87;8.17;;;1.30;93.50;0.90;101758.00;;;;4977472;28;110752;-62
2022/03/25 00:47:55;;;;;;;12.90;6.07;;;1.20;93.70;0.90;101765.00;;;;4978287;28;92884;-62
2022/03/25 00:50:21;;;;;;;8.07;6.17;;;1.80;94.10;0.90;101756.00;;;;4976986;28;93101;-62
2022/03/25 00:52:48;;;;;;;9.47;6.67;;;1.20;94.30;0.90;101767.00;;;;4994586;28;93782;-62
2022/03/25 00:55:14;;;;;;;10.63;7.17;;;1.10;94.50;0.80;101760.00;;;;4990793;27;92755;-62
2022/03/25 00:57:39;;;;;;;12.13;7.53;;;1.60;94.80;0.80;101771.00;;;;4977347;28;92873;-61
2022/03/25 01:00:07;;;;;;;12.17;7.93;;;1.10;94.70;0.70;101756.00;;;;4974091;28;123511;-63
2022/03/25 01:02:34;;;;;;;10.10;7.47;;;1.10;94.70;0.60;101758.00;;;;4987110;28;94241;-62
2022/03/25 01:04:59;;;;;;;11.80;7.47;;;1.00;94.90;0.60;101758.00;;;;4994183;27;93048;-62
2022/03/25 01:07:25;;;;;;;14.93;7.57;;;0.90;95.20;0.60;101753.00;;;;4983123;28;108296;-62
2022/03/25 01:09:51;;;;;;;10.47;6.30;;;0.90;95.40;0.60;101761.00;;;;4984574;27;122811;-62
2022/03/25 01:12:17;;;;;;;11.30;7.13;;;0.90;95.60;0.60;101757.00;;;;4993483;27;92890;-61
2022/03/25 01:14:43;;;;;;;9.90;7.57;;;0.90;95.80;0.60;101761.00;;;;4993726;27;92916;-62
2022/03/25 01:17:09;;;;;;;11.10;6.30;;;0.90;95.90;0.60;101749.00;;;;4989786;27;93681;-62
2022/03/25 01:19:34;;;;;;;13.37;8.10;;;0.90;96.00;0.60;101749.00;;;;4972525;28;121721;-62
2022/03/25 01:22:03;;;;;;;10.67;7.10;;;0.80;96.10;0.50;101742.00;;;;4973665;28;122895;-61
2022/03/25 01:24:29;;;;;;;12.87;6.07;;;0.80;96.00;0.50;101739.00;;;;4979523;27;92986;-62
2022/03/25 01:26:55;;;;;;;10.33;7.00;;;0.80;96.00;0.40;101746.00;;;;4993746;28;93169;-62
2022/03/25 01:29:20;;;;;;;8.50;6.13;;;0.70;96.30;0.40;101742.00;;;;4993240;28;118223;-62
2022/03/25 01:31:46;;;;;;;10.63;6.10;;;0.70;96.50;0.40;101741.00;;;;4988330;27;93144;-62
2022/03/25 01:34:12;;;;;;;10.67;5.83;;;0.80;96.60;0.40;101746.00;;;;4973519;28;109312;-62
2022/03/25 01:36:37;;;;;;;10.30;6.53;;;0.70;96.80;0.40;101741.00;;;;4972834;28;108981;-62
2022/03/25 01:39:03;;;;;;;8.20;6.80;;;0.70;97.00;0.40;101737.00;;;;4970764;28;123127;-61
2022/03/25 01:41:29;;;;;;;7.97;6.10;;;1.30;97.20;0.30;101739.00;;;;4972459;28;93739;-62
2022/03/25 01:43:59;;;;;;;8.90;6.30;;;0.70;97.10;0.30;101718.00;;;;4974566;28;111001;-62
2022/03/25 01:46:26;;;;;;;9.07;6.43;;;0.70;97.20;0.30;101730.00;;;;4984078;28;94066;-60
2022/03/25 01:48:53;;;;;;;5.23;4.57;;;0.60;97.20;0.30;101737.00;;;;4993831;27;93718;-62
2022/03/25 01:51:26;;;;;;;11.97;7.10;;;0.40;97.40;0.30;101737.00;;;;4973227;28;123212;-62
2022/03/25 01:53:52;;;;;;;8.20;5.03;;;0.60;97.70;0.20;101736.00;;;;4993457;28;102955;-61
2022/03/25 01:56:22;;;;;;;7.60;5.63;;;0.60;97.70;0.20;101736.00;;;;4992400;27;109157;-62
2022/03/25 01:58:49;;;;;;;5.83;4.93;;;0.50;97.80;0.20;101737.00;;;;4993736;27;93168;-62
2022/03/25 02:01:15;;;;;;;9.57;6.33;;;0.60;97.90;0.20;101732.00;;;;4992365;27;93073;-62
2022/03/25 02:03:41;;;;;;;10.93;7.30;;;0.50;97.90;0.10;101730.00;;;;4994052;28;93084;-62
2022/03/25 02:06:07;;;;;;;6.77;5.60;;;0.50;98.10;0.10;101722.00;;;;4992647;27;94096;-62
2022/03/25 02:08:33;;;;;;;11.40;6.73;;;0.80;98.50;0.10;101723.00;;;;4992947;27;93303;-63
2022/03/25 02:10:59;;;;;;;10.47;6.57;;;0.50;98.30;0.00;101728.00;;;;4991495;27;122362;-62
2022/03/25 02:13:25;;;;;;;9.90;6.63;;;0.40;98.30;-0.10;101735.00;;;;4991553;28;92869;-62
2022/03/25 02:15:52;;;;;;;8.73;6.67;;;0.30;98.30;-0.20;101731.00;;;;4974003;27;92936;-62
2022/03/25 02:18:23;;;;;;;8.53;5.57;;;0.20;98.50;-0.20;101734.00;;;;4973718;28;93026;-62
2022/03/25 02:20:50;;;;;;;8.93;5.87;;;0.10;98.60;-0.30;101734.00;;;;4972413;28;93643;-62
2022/03/25 02:23:16;;;;;;;13.30;7.10;;;0.80;99.10;-0.30;101727.00;;;;4974030;28;108479;-62
2022/03/25 02:25:43;;;;;;;7.33;5.00;;;0.00;99.00;-0.30;101735.00;;;;4989422;27;93221;-62
2022/03/25 02:28:10;;;;;;;7.20;6.10;;;0.00;99.40;-0.30;101730.00;;;;4991644;27;93897;-62
2022/03/25 02:30:37;;;;;;;10.07;5.20;;;0.00;99.70;-0.30;101731.00;;;;4991618;27;93905;-62
2022/03/25 02:33:06;;;;;;;12.97;6.63;;;0.00;99.80;-0.30;101740.00;;;;4977387;27;92740;-62
2022/03/25 02:35:51;;;;;;;8.00;5.90;;;0.00;99.90;-0.40;101727.00;;;;4973012;28;92797;-62
2022/03/25 02:38:22;;;;;;;6.97;5.77;;;0.00;99.90;-0.40;101733.00;;;;4973316;28;93141;-62
2022/03/25 02:40:49;;;;;;;8.67;5.30;;;-0.10;99.90;-0.40;101735.00;;;;4972437;28;93627;-61
2022/03/25 02:43:16;;;;;;;8.73;5.67;;;-0.10;99.90;-0.40;101738.00;;;;4985567;28;93163;-62
2022/03/25 02:45:42;;;;;;;13.97;6.47;;;-0.10;99.90;-0.50;101734.00;;;;4991091;27;92954;-63
2022/03/25 02:48:09;;;;;;;13.17;7.57;;;-0.10;99.90;-0.50;101742.00;;;;4993588;27;92889;-62
2022/03/25 02:50:36;;;;;;;12.20;6.07;;;-0.10;99.90;-0.50;101744.00;;;;4977820;27;103122;-62
2022/03/25 02:53:02;;;;;;;8.80;5.33;;;-0.10;99.90;-0.60;101732.00;;;;4989660;28;111043;-62
2022/03/25 02:55:28;;;;;;;13.03;6.67;;;-0.10;99.90;-0.60;101730.00;;;;4991839;27;93617;-63
2022/03/25 02:57:55;;;;;;;10.33;6.60;;;-0.20;99.90;-0.60;101735.00;;;;4991912;28;93021;-62
2022/03/25 03:00:26;;;;;;;12.00;6.73;;;-0.20;99.90;-0.60;101730.00;;;;4991506;27;93426;-62
2022/03/25 03:02:53;;;;;;;10.30;6.83;;;-0.20;99.90;-0.60;101734.00;;;;4992788;28;93213;-63
2022/03/25 03:05:19;;;;;;;10.37;6.57;;;-0.30;99.90;-0.70;101739.00;;;;4980109;27;92933;-63
2022/03/25 03:07:45;;;;;;;8.70;6.97;;;-0.30;99.90;-0.70;101733.00;;;;4970956;28;93981;-63
2022/03/25 03:10:12;;;;;;;6.60;5.80;;;-0.30;99.90;-0.70;101733.00;;;;4973098;28;93080;-63
2022/03/25 03:12:38;;;;;;;8.00;5.10;;;-0.30;99.90;-0.70;101729.00;;;;4992154;27;92121;-63
2022/03/25 03:15:06;;;;;;;10.37;5.93;;;-0.40;99.90;-0.70;101728.00;;;;4991291;27;108459;-63
2022/03/25 03:17:32;;;;;;;9.97;6.90;;;-0.40;99.90;-0.70;101728.00;;;;4993144;27;94060;-63
2022/03/25 03:19:58;;;;;;;6.13;5.23;;;-0.30;99.90;-0.80;101730.00;;;;4990917;27;110047;-63
2022/03/25 03:22:24;;;;;;;7.97;5.47;;;-0.30;99.90;-0.80;101740.00;;;;4985788;27;93055;-63
2022/03/25 03:24:49;;;;;;;9.20;6.27;;;-0.50;99.90;-0.90;101738.00;;;;4975174;28;105422;-62
2022/03/25 03:27:15;;;;;;;20.33;6.30;;;-0.50;99.90;-1.00;101736.00;;;;4971017;28;119586;-62
2022/03/25 03:29:41;;;;;;;6.13;4.87;;;-0.60;99.90;-1.00;101734.00;;;;4970885;28;122498;-62
2022/03/25 03:32:08;;;;;;;9.30;6.83;;;-0.70;99.90;-1.10;101734.00;;;;4972675;28;92881;-63
2022/03/25 03:34:34;;;;;;;8.33;6.57;;;-0.70;99.90;-1.10;101740.00;;;;4982224;28;92994;-60
2022/03/25 03:36:59;;;;;;;10.37;6.57;;;-0.70;99.90;-1.20;101729.00;;;;4984999;28;121913;-62
2022/03/25 03:39:25;;;;;;;9.13;6.67;;;-0.80;99.90;-1.30;101740.00;;;;4979650;28;122032;-62
2022/03/25 03:41:51;;;;;;;9.63;6.77;;;-0.90;99.90;-1.30;101744.00;;;;4991498;28;109517;-62
2022/03/25 03:44:17;;;;;;;16.67;7.30;;;-0.90;99.90;-1.30;101745.00;;;;4992103;27;93776;-62
2022/03/25 03:46:42;;;;;;;11.17;7.53;;;-0.90;99.90;-1.40;101738.00;;;;4991549;28;93679;-62
2022/03/25 03:49:08;;;;;;;10.93;6.87;;;-1.00;99.90;-1.40;101745.00;;;;4989764;27;93813;-62
2022/03/25 03:51:46;;;;;;;13.90;7.17;;;-1.00;99.90;-1.40;101743.00;;;;4974249;28;109841;-62
2022/03/25 03:54:12;;;;;;;19.93;6.33;;;-1.00;99.90;-1.40;101745.00;;;;4991867;28;92498;-62
2022/03/25 03:56:38;;;;;;;7.70;6.57;;;-1.00;99.90;-1.40;101746.00;;;;4991051;27;105961;-62
2022/03/25 03:59:03;;;;;;;10.23;7.63;;;-1.10;99.90;-1.40;101747.00;;;;4991541;28;120711;-62
2022/03/25 04:01:29;;;;;;;10.93;6.77;;;-1.00;99.90;-1.30;101752.00;;;;4991159;28;109852;-60
2022/03/25 04:03:55;;;;;;;9.73;6.50;;;-1.00;99.90;-1.40;101750.00;;;;4992825;27;92612;-63
2022/03/25 04:06:22;;;;;;;10.77;7.20;;;-1.00;99.90;-1.30;101751.00;;;;4988895;28;96933;-63
2022/03/25 04:08:49;;;;;;;15.57;7.07;;;-0.90;99.90;-1.30;101744.00;;;;4991506;27;93887;-63
2022/03/25 04:11:18;;;;;;;9.07;6.67;;;-1.00;99.90;-1.40;101756.00;;;;4991545;27;92855;-64
2022/03/25 04:13:45;;;;;;;12.10;7.10;;;-1.00;99.90;-1.40;101746.00;;;;4987659;27;93048;-63
2022/03/25 04:16:11;;;;;;;8.53;6.53;;;-1.00;99.90;-1.40;101737.00;;;;4971567;28;92986;-63
2022/03/25 04:18:37;;;;;;;9.17;5.80;;;-1.00;99.90;-1.50;101735.00;;;;4969348;28;117694;-63
2022/03/25 04:21:04;;;;;;;10.63;7.10;;;-1.10;99.90;-1.50;101747.00;;;;4987262;27;93012;-63
2022/03/25 04:23:30;;;;;;;9.53;5.87;;;-1.20;99.90;-1.50;101747.00;;;;4988155;27;92617;-63
2022/03/25 04:25:55;;;;;;;11.90;7.47;;;-1.20;99.90;-1.60;101744.00;;;;4991565;28;103304;-63
2022/03/25 04:28:22;;;;;;;8.07;6.60;;;-1.20;99.90;-1.60;101753.00;;;;4992514;27;93091;-62
2022/03/25 04:30:47;;;;;;;8.97;6.10;;;-1.20;99.90;-1.60;101755.00;;;;4975079;27;92783;-62
2022/03/25 04:33:13;;;;;;;12.10;5.83;;;-1.20;99.90;-1.60;101756.00;;;;4971417;28;93761;-62
2022/03/25 04:35:39;;;;;;;8.47;5.60;;;-1.30;99.90;-1.60;101756.00;;;;4974198;28;122872;-61
2022/03/25 04:38:05;;;;;;;9.33;6.40;;;-1.30;99.90;-1.60;101758.00;;;;4990114;28;120830;-63
2022/03/25 04:40:32;;;;;;;13.20;6.27;;;-1.30;99.90;-1.60;101764.00;;;;4995345;27;92876;-63
2022/03/25 04:43:01;;;;;;;10.23;6.20;;;-1.20;99.90;-1.60;101764.00;;;;4996515;28;92697;-63
2022/03/25 04:45:28;;;;;;;9.07;6.00;;;-1.30;99.90;-1.60;101765.00;;;;4994388;27;107476;-63
2022/03/25 04:47:55;;;;;;;15.03;7.40;;;-1.30;99.90;-1.60;101764.00;;;;4994947;27;92892;-63
2022/03/25 04:50:21;;;;;;;9.80;7.47;;;-1.30;99.90;-1.70;101769.00;;;;4984406;28;92482;-64
2022/03/25 04:52:47;;;;;;;10.27;6.77;;;-1.30;99.90;-1.70;101778.00;;;;4980948;28;108938;-63
2022/03/25 04:55:13;;;;;;;53.37;30.00;;;-1.30;99.90;-1.70;101773.00;;;;4982363;27;95209;-63
2022/03/25 04:57:40;;;;;;;21.43;11.70;;;-1.40;99.90;-1.80;101781.00;;;;4990827;28;122595;-63
2022/03/25 05:00:08;;;;;;;17.20;9.67;;;-1.30;99.90;-1.80;101783.00;;;;4994737;27;92721;-63
2022/03/25 05:02:34;;;;;;;16.47;7.63;;;-1.40;99.90;-1.70;101780.00;;;;4994894;27;101042;-63
2022/03/25 05:05:00;;;;;;;11.53;7.57;;;-1.40;99.90;-1.80;101780.00;;;;4986534;27;123748;-63
2022/03/25 05:07:26;;;;;;;13.70;8.13;;;-1.40;99.90;-1.80;101792.00;;;;4974934;28;93455;-62
2022/03/25 05:09:52;;;;;;;10.23;7.00;;;-1.40;99.90;-1.70;101793.00;;;;4973779;28;99016;-63
2022/03/25 05:12:17;;;;;;;14.60;7.60;;;-1.40;99.90;-1.80;101790.00;;;;4974894;28;92782;-62
2022/03/25 05:14:43;;;;;;;9.33;5.67;;;-1.40;99.90;-1.80;101796.00;;;;4974830;28;105799;-62
2022/03/25 05:17:09;;;;;;;9.50;6.97;;;-1.40;99.90;-1.70;101800.00;;;;4973578;28;114626;-62
2022/03/25 05:19:35;;;;;;;10.87;7.33;;;-1.40;99.90;-1.70;101795.00;;;;4973745;28;109614;-63
2022/03/25 05:22:01;;;;;;;9.60;6.57;;;-1.20;99.90;-1.70;101791.00;;;;4985114;28;107276;-62
2022/03/25 05:24:27;;;;;;;11.57;6.63;;;-1.30;99.90;-1.60;101785.00;;;;4980638;27;107097;-62
2022/03/25 05:26:54;;;;;;;10.33;6.27;;;-1.20;99.90;-1.50;101796.00;;;;4971473;28;93273;-62
2022/03/25 05:29:20;;;;;;;9.73;6.87;;;-1.10;99.90;-1.40;101796.00;;;;4972747;28;92977;-62
2022/03/25 05:31:46;;;;;;;7.30;5.83;;;-1.00;99.90;-1.20;101797.00;;;;4979882;28;92760;-62
2022/03/25 05:34:12;;;;;;;12.17;6.73;;;-0.90;99.90;-1.10;101809.00;;;;4985939;28;122778;-63
2022/03/25 05:36:38;;;;;;;11.20;7.20;;;-0.90;99.90;-0.90;101808.00;;;;4970594;28;93040;-62
2022/03/25 05:39:05;;;;;;;9.83;7.43;;;-0.60;99.90;-0.80;101817.00;;;;4971136;28;92645;-62
2022/03/25 05:41:32;;;;;;;13.20;7.27;;;-0.50;99.90;-0.70;101811.00;;;;4972788;28;92915;-62
2022/03/25 05:43:58;;;;;;;9.20;7.83;;;-0.40;99.90;-0.60;101817.00;;;;4974741;27;94312;-62
2022/03/25 05:46:23;;;;;;;13.50;7.13;;;-0.30;99.90;-0.40;101815.00;;;;4969313;28;122575;-62
2022/03/25 05:48:49;;;;;;;13.90;8.43;;;-0.10;99.90;-0.30;101823.00;;;;4971536;28;111533;-63
2022/03/25 05:51:15;;;;;;;12.50;8.20;;;-0.10;99.90;-0.10;101821.00;;;;4971671;28;92875;-62
2022/03/25 05:53:41;;;;;;;12.47;7.27;;;0.10;99.90;0.00;101829.00;;;;4970387;28;119049;-62
2022/03/25 05:56:08;;;;;;;8.93;7.17;;;0.20;99.90;0.10;101828.00;;;;4975608;28;100188;-63
2022/03/25 05:58:35;;;;;;;8.57;7.67;;;0.40;99.90;0.30;101833.00;;;;4969561;28;93132;-61
2022/03/25 06:01:07;;;;;;;10.90;7.67;;;0.50;99.90;0.40;101831.00;;;;4971488;28;92661;-62
2022/03/25 06:03:33;;;;;;;13.30;7.27;;;0.60;99.90;0.50;101839.00;;;;4971701;28;93598;-62
2022/03/25 06:06:00;;;;;;;14.57;7.63;;;0.80;99.90;0.80;101843.00;;;;4970902;28;93018;-63
2022/03/25 06:08:26;;;;;;;9.47;7.40;;;0.90;99.90;0.90;101832.00;;;;4977232;28;92833;-62
2022/03/25 06:10:52;;;;;;;13.93;7.77;;;1.10;99.90;1.10;101838.00;;;;4978849;28;93968;-63
2022/03/25 06:13:18;;;;;;;11.13;8.37;;;1.30;99.90;1.30;101837.00;;;;4974838;28;122139;-61
2022/03/25 06:15:44;;;;;;;11.37;7.37;;;2.10;99.90;1.50;101842.00;;;;4970231;28;94106;-63
2022/03/25 06:18:09;;;;;;;18.67;9.60;;;1.60;99.90;1.70;101849.00;;;;4975238;28;92859;-63
2022/03/25 06:20:35;;;;;;;13.20;9.07;;;1.80;99.90;2.00;101843.00;;;;4971841;28;108392;-63
2022/03/25 06:23:01;;;;;;;18.03;8.70;;;2.10;99.90;2.30;101840.00;;;;4974911;28;122639;-63
2022/03/25 06:25:28;;;;;;;14.53;8.77;;;2.30;99.90;2.60;101839.00;;;;4974318;28;93018;-62
2022/03/25 06:27:59;;;;;;;13.87;8.53;;;2.60;99.90;2.90;101840.00;;;;4975989;28;95815;-62
2022/03/25 06:30:31;;;;;;;24.27;8.20;;;2.90;99.90;3.20;101854.00;;;;4970061;28;94441;-63
2022/03/25 06:32:58;;;;;;;16.53;9.60;;;3.80;99.90;3.50;101846.00;;;;4969796;28;93879;-63
2022/03/25 06:35:24;;;;;;;17.57;9.93;;;3.60;99.90;3.80;101840.00;;;;4975065;27;94349;-63
2022/03/25 06:37:52;;;;;;;15.60;9.23;;;3.90;99.90;4.10;101856.00;;;;4977680;28;93107;-63
2022/03/25 06:40:18;;;;;;;14.70;9.37;;;4.10;99.90;4.30;101854.00;;;;4971208;28;93005;-63
2022/03/25 06:42:45;;;;;;;17.63;10.53;;;4.60;99.90;4.40;101852.00;;;;4971516;28;93511;-62
2022/03/25 06:45:13;;;;;;;19.80;11.20;;;4.50;99.20;4.60;101848.00;;;;4969553;28;93442;-63
2022/03/25 06:47:39;;;;;;;16.90;11.03;;;4.60;98.60;4.70;101856.00;;;;4970169;28;93030;-63
2022/03/25 06:50:07;;;;;;;20.60;11.03;;;4.80;98.20;4.90;101848.00;;;;4970648;28;93110;-63
2022/03/25 06:52:34;;;;;;;18.17;10.63;;;5.00;98.00;5.10;101861.00;;;;4972714;28;92450;-61
2022/03/25 06:55:00;;;;;;;20.10;12.40;;;5.20;97.60;5.30;101852.00;;;;4969016;27;93463;-63
2022/03/25 06:57:26;;;;;;;32.27;12.70;;;5.40;97.40;5.60;101856.00;;;;4969689;28;92968;-63
2022/03/25 06:59:52;;;;;;;26.93;14.43;;;5.60;97.80;5.80;101860.00;;;;4971699;28;101718;-63
2022/03/25 07:02:18;;;;;;;19.93;13.27;;;5.90;97.10;6.10;101870.00;;;;4969570;27;114118;-63
2022/03/25 07:04:44;;;;;;;18.47;11.97;;;6.10;96.40;6.40;101865.00;;;;4968073;28;114579;-63
2022/03/25 07:07:11;;;;;;;19.90;13.37;;;6.40;95.50;6.60;101857.00;;;;4971509;28;93125;-63
2022/03/25 07:09:37;;;;;;;23.60;13.40;;;6.60;94.20;6.80;101872.00;;;;4970927;28;93198;-63
2022/03/25 07:12:04;;;;;;;20.73;12.40;;;6.80;93.50;7.00;101879.00;;;;4968441;28;114654;-63
2022/03/25 07:14:29;;;;;;;23.10;11.30;;;7.00;92.70;7.20;101881.00;;;;4971477;28;93691;-62
2022/03/25 07:16:55;;;;;;;22.83;12.83;;;7.20;91.80;7.40;101873.00;;;;4969605;28;112595;-63
2022/03/25 07:19:25;;;;;;;20.20;13.33;;;7.70;91.10;7.50;101875.00;;;;4973106;27;93016;-64
2022/03/25 07:21:54;;;;;;;22.27;13.17;;;7.50;90.20;7.60;101882.00;;;;4968697;28;93809;-62
2022/03/25 07:24:21;;;;;;;20.93;13.20;;;7.70;88.90;7.70;101883.00;;;;4970101;28;94188;-63
2022/03/25 07:26:48;;;;;;;20.90;12.97;;;8.20;88.20;7.90;101878.00;;;;4972551;27;92934;-64
2022/03/25 07:29:14;;;;;;;21.67;12.27;;;7.90;87.10;8.10;101885.00;;;;4976086;28;92669;-64
2022/03/25 07:31:39;;;;;;;20.23;14.20;;;8.10;86.70;8.40;101886.00;;;;4968074;27;109993;-64
2022/03/25 07:34:05;;;;;;;26.23;13.33;;;8.40;85.50;8.70;101893.00;;;;4975509;28;122871;-64
2022/03/25 07:36:31;;;;;;;24.43;12.73;;;8.60;84.20;8.90;101900.00;;;;4968749;28;93012;-64
2022/03/25 07:38:57;;;;;;;21.07;12.83;;;8.80;81.90;9.10;101896.00;;;;4968917;28;93471;-64
2022/03/25 07:41:23;;;;;;;21.37;11.70;;;9.00;81.10;9.30;101906.00;;;;4967629;28;122825;-64
2022/03/25 07:43:48;;;;;;;18.63;11.43;;;9.30;79.70;9.60;101910.00;;;;4968328;28;108640;-64
2022/03/25 07:46:14;;;;;;;18.70;11.23;;;9.50;79.10;10.00;101913.00;;;;4969903;28;93007;-64
2022/03/25 07:48:40;;;;;;;21.57;12.20;;;9.90;77.50;10.20;101912.00;;;;4973690;28;94295;-63
2022/03/25 07:51:08;;;;;;;27.40;12.07;;;10.20;74.40;10.50;101917.00;;;;4967658;28;95490;-63
2022/03/25 07:53:33;;;;;;;20.73;12.50;;;10.40;73.40;10.80;101915.00;;;;4972610;28;93064;-64
2022/03/25 07:56:00;;;;;;;20.40;11.57;;;10.70;72.50;11.10;101913.00;;;;4969068;28;92880;-64
2022/03/25 07:58:27;;;;;;;13.80;10.47;;;11.00;72.10;11.60;101920.00;;;;4969257;28;92852;-64
2022/03/25 08:00:53;;;;;;;24.17;10.83;;;11.40;71.60;12.00;101916.00;;;;4982835;27;93098;-64
2022/03/25 08:03:19;;;;;;;21.67;11.33;;;11.90;70.60;12.50;101919.00;;;;4970922;28;92882;-64
2022/03/25 08:05:50;;;;;;;18.83;11.20;;;12.30;68.70;12.90;101920.00;;;;4968866;28;92533;-64
2022/03/25 08:08:19;;;;;;;14.57;10.03;;;12.70;66.00;13.20;101932.00;;;;4975062;28;92886;-64
2022/03/25 08:10:47;;;;;;;20.77;10.90;;;13.00;64.30;13.50;101927.00;;;;4980045;28;93366;-64
2022/03/25 08:13:12;;;;;;;22.57;12.87;;;13.30;63.00;13.80;101935.00;;;;4971560;28;95765;-63
2022/03/25 08:15:38;;;;;;;16.87;10.23;;;13.70;61.20;14.00;101942.00;;;;4976682;28;92994;-64
2022/03/25 08:18:13;;;;;;;19.97;10.97;;;13.90;59.60;14.30;101950.00;;;;4969391;28;104977;-64
2022/03/25 08:20:41;;;;;;;18.47;9.83;;;14.10;59.30;14.60;101936.00;;;;4971187;28;93707;-64
2022/03/25 08:29:00;;;;;;;18.20;9.43;;;15.10;56.80;15.60;101943.00;;;;4967221;28;93563;-64
2022/03/25 08:31:28;;;;;;;18.03;10.20;;;15.50;55.90;15.90;101948.00;;;;4973000;28;92795;-64
2022/03/25 08:33:54;;;;;;;17.85;9.93;;;15.60;54.70;16.30;101950.00;;;;4981545;28;92920;-65
2022/03/25 08:36:20;;;;;;;17.95;8.77;;;16.10;54.20;16.60;101950.00;;;;4973043;28;92546;-65
2022/03/25 08:38:46;;;;;;;13.40;9.98;;;16.40;53.10;16.90;101956.00;;;;4978949;28;99793;-65
2022/03/25 08:41:12;;;;;;;18.17;9.75;;;16.60;51.50;17.10;101947.00;;;;4971467;28;94073;-64
2022/03/25 08:43:39;;;;;;;15.02;9.35;;;16.90;50.80;17.30;101952.00;;;;4976909;28;93447;-64
2022/03/25 08:46:07;;;;;;;14.95;8.57;;;17.20;50.30;17.60;101953.00;;;;4971637;28;94787;-64
2022/03/25 08:48:34;;;;;;;12.32;8.00;;;17.40;49.50;17.70;101956.00;;;;4939556;28;92831;-64
2022/03/25 08:50:59;;;;;;;15.02;9.80;;;17.60;48.30;17.90;101955.00;;;;4971882;28;123472;-64
2022/03/25 08:53:25;;;;;;;21.58;9.77;;;17.80;47.60;18.10;101949.00;;;;4976575;28;92935;-64
2022/03/25 08:55:51;;;;;;;18.45;8.13;;;18.10;47.10;18.40;101956.00;;;;4972730;27;92314;-65
2022/03/25 08:58:17;;;;;;;14.27;8.93;;;18.20;46.60;18.60;101967.00;;;;4976442;28;92839;-64
2022/03/25 09:00:44;;;;;;;12.18;7.88;;;18.40;46.10;18.80;101959.00;;;;4975861;28;93970;-64
2022/03/25 09:03:10;;;;;;;19.67;8.65;;;18.60;45.70;18.90;101957.00;;;;4976061;28;95088;-64
2022/03/25 09:05:36;;;;;;;12.70;7.20;;;18.70;44.80;19.20;101959.00;;;;4973011;28;92925;-63
2022/03/25 09:08:02;;;;;;;13.68;8.63;;;18.90;44.20;19.40;101969.00;;;;4957388;28;93256;-63
2022/03/25 09:10:28;;;;;;;19.65;8.73;;;19.10;43.90;19.60;101964.00;;;;4970565;28;123870;-63
2022/03/25 09:12:53;;;;;;;21.13;9.85;;;19.40;43.60;19.90;101959.00;;;;4978386;28;122442;-63
2022/03/25 09:15:22;;;;;;;19.80;9.60;;;19.60;41.00;19.80;101966.00;;;;4971472;28;110427;-64
2022/03/25 09:17:49;;;;;;;21.00;10.25;;;19.60;40.50;19.70;101965.00;;;;4972293;28;92669;-64
2022/03/25 09:20:15;;;;;;;18.48;8.65;;;19.60;40.30;19.70;101964.00;;;;4970953;27;93569;-64
2022/03/25 09:22:42;;;;;;;19.65;8.70;;;19.60;40.50;19.90;101958.00;;;;4978901;28;93443;-64
2022/03/25 09:25:09;;;;;;;16.48;9.35;;;19.60;40.70;20.10;101964.00;;;;4979140;27;92812;-63
2022/03/25 09:27:36;;;;;;;24.58;10.93;;;19.80;40.20;20.30;101956.00;;;;4986636;27;94159;-62
2022/03/25 09:30:04;;;;;;;15.60;10.77;;;19.90;38.90;20.20;101968.00;;;;4969552;28;93141;-64
2022/03/25 09:32:30;;;;;;;15.80;9.23;;;20.00;38.30;20.30;101952.00;;;;4970637;28;94187;-63
2022/03/25 09:35:08;;;;;;;16.65;10.13;;;20.00;38.00;20.30;101959.00;;;;4972771;28;113556;-62
2022/03/25 09:37:36;;;;;;;19.05;10.60;;;20.00;37.20;20.30;101958.00;;;;4976541;28;93512;-63
2022/03/25 09:40:12;;;;;;;17.60;10.73;;;20.00;36.80;20.30;101967.00;;;;4974614;27;102821;-63
2022/03/25 09:42:39;;;;;;;21.45;11.07;;;20.00;37.20;20.50;101964.00;;;;4971217;28;92968;-65
2022/03/25 09:45:07;;;;;;;18.38;9.98;;;20.20;36.40;20.30;101970.00;;;;4976100;28;91922;-64
2022/03/25 09:47:33;;;;;;;13.23;8.77;;;20.00;36.90;20.30;101961.00;;;;4971060;27;93495;-64
2022/03/25 09:50:00;;;;;;;20.35;9.93;;;19.90;37.10;20.50;101966.00;;;;4973023;28;94156;-64
2022/03/25 09:52:31;;;;;;;14.57;9.82;;;20.00;37.80;20.80;101972.00;;;;4976476;27;97140;-64
2022/03/25 09:54:58;;;;;;;17.23;9.68;;;20.30;37.90;21.20;101968.00;;;;4975750;28;94716;-64
2022/03/25 09:57:29;;;;;;;18.67;11.35;;;20.60;36.50;21.40;101966.00;;;;4977017;28;92820;-64
2022/03/25 09:59:55;;;;;;;18.60;9.82;;;20.80;36.30;21.70;101957.00;;;;4968272;28;94186;-65
2022/03/25 10:02:20;;;;;;;14.15;8.25;;;20.90;36.60;22.00;101968.00;;;;4974366;28;105959;-66
2022/03/25 10:04:49;;;;;;;16.48;9.15;;;21.20;37.00;22.40;101962.00;;;;4972357;28;110474;-65
2022/03/25 10:07:26;;;;;;;20.42;10.85;;;21.60;37.00;22.90;101967.00;;;;4970321;28;92861;-65
2022/03/25 10:10:11;;;;;;;16.48;7.40;;;22.00;37.00;23.40;101966.00;;;;4970678;28;93077;-65
2022/03/25 10:12:39;;;;;;;13.57;9.82;;;22.50;36.50;23.80;101968.00;;;;4971448;28;92812;-65
2022/03/25 10:15:25;;;;;;;18.52;10.65;;;23.00;36.00;24.10;101976.00;;;;4972149;28;92972;-66
2022/03/25 10:17:59;;;;;;;17.48;10.00;;;23.30;35.60;24.20;101963.00;;;;4972628;28;93997;-65
2022/03/25 10:20:31;;;;;;;16.98;10.15;;;23.60;35.30;24.30;101977.00;;;;4971131;28;93444;-66
2022/03/25 10:23:10;;;;;;;15.75;10.90;;;23.70;34.60;24.30;101976.00;;;;4969236;28;93489;-66
2022/03/25 10:25:45;;;;;;;15.35;10.10;;;23.80;34.70;24.40;101987.00;;;;4976936;28;92883;-66
2022/03/25 10:28:34;;;;;;;17.27;10.80;;;23.80;34.20;24.20;101972.00;;;;4976269;28;93092;-65
2022/03/25 10:31:05;;;;;;;21.67;11.18;;;23.80;33.10;24.00;101978.00;;;;4969511;28;93777;-65
2022/03/25 10:33:43;;;;;;;12.25;8.90;;;23.60;33.10;24.00;101965.00;;;;4969273;28;94153;-64
2022/03/25 10:36:15;;;;;;;18.30;9.18;;;23.50;33.90;24.20;101972.00;;;;4975310;28;92252;-67
2022/03/25 10:39:00;;;;;;;10.48;8.27;;;23.70;34.20;24.50;101979.00;;;;4973579;27;92867;-67
2022/03/25 10:41:40;;;;;;;11.70;7.68;;;23.90;34.20;24.70;101976.00;;;;4971331;28;93447;-65
2022/03/25 10:44:09;;;;;;;11.55;7.65;;;24.10;34.00;24.90;101980.00;;;;4973697;27;93912;-66
2022/03/25 10:46:40;;;;;;;12.82;7.18;;;24.30;33.70;25.20;101970.00;;;;4973741;28;92681;-66
2022/03/25 10:49:12;;;;;;;19.25;8.85;;;24.50;33.40;25.30;101967.00;;;;4971647;28;93077;-67